Time;durP1;ratioP1;P1;durP2;ratioP2;P2;SDS_P1;SDS_P2;PMS_P1;PMS_P2;Temp;Humidity;BMP_temperature;BMP_pressure;BME280_temperature;BME280_humidity;BME280_pressure;Samples;Min_cycle;Max_cycle;Signal;HPM_P1;HPM_P2
2021/12/08 00:04:02;;;;;;;1999.90;999.90;;;;;;;1.63;77.21;100394.66;15749006;28;20139;-61
2021/12/08 00:19:30;;;;;;;1999.90;999.90;;;;;;;1.57;77.38;100396.63;15762151;28;20037;-61
2021/12/08 00:27:05;;;;;;;1999.90;999.90;;;;;;;1.29;77.39;100394.50;15766519;28;20032;-62
2021/12/08 00:34:38;;;;;;;1999.90;999.90;;;;;;;1.29;78.23;100391.75;15758504;28;20143;-59
2021/12/08 00:42:12;;;;;;;1999.90;999.90;;;;;;;1.44;77.64;100362.28;15774479;28;20052;-62
2021/12/08 00:49:47;;;;;;;1999.90;999.90;;;;;;;1.32;77.26;100347.22;15760315;28;20044;-61
2021/12/08 00:57:21;;;;;;;1999.90;999.90;;;;;;;1.40;77.75;100338.41;15778614;28;20377;-59
2021/12/08 01:04:53;;;;;;;1999.90;999.90;;;;;;;1.20;78.44;100317.31;15742399;28;20497;-61
2021/12/08 01:12:30;;;;;;;1999.90;999.90;;;;;;;1.22;78.48;100320.59;15786360;28;20122;-60
2021/12/08 01:20:04;;;;;;;1999.90;999.90;;;;;;;1.21;78.24;100312.63;15778656;28;20047;-62
2021/12/08 01:27:38;;;;;;;1999.90;999.90;;;;;;;1.04;78.38;100297.31;15778455;28;20045;-62
2021/12/08 01:35:12;;;;;;;1999.90;999.90;;;;;;;1.08;78.15;100281.06;15781926;28;20058;-61
2021/12/08 01:42:50;;;;;;;1999.90;999.90;;;;;;;1.01;78.57;100262.13;15755577;28;20374;-61
2021/12/08 01:50:23;;;;;;;1999.90;999.90;;;;;;;1.07;78.14;100246.47;15744791;28;20450;-62
2021/12/08 01:57:57;;;;;;;1999.90;999.90;;;;;;;1.22;77.16;100234.56;15765199;28;20105;-61
2021/12/08 02:05:30;;;;;;;1999.90;999.90;;;;;;;0.93;78.64;100213.25;15759152;28;20530;-61
2021/12/08 02:13:04;;;;;;;1999.90;999.90;;;;;;;0.95;78.10;100191.84;15777144;28;20075;-63
2021/12/08 02:20:37;;;;;;;1999.90;999.90;;;;;;;1.10;78.19;100197.25;15789197;28;20064;-59
2021/12/08 02:28:12;;;;;;;1999.90;999.90;;;;;;;1.04;78.15;100203.88;15755477;28;20036;-60
2021/12/08 02:51:29;;;;;;;1999.90;999.90;;;;;;;1.01;77.52;100198.13;15761031;28;20086;-66
2021/12/08 02:59:04;;;;;;;1999.90;999.90;;;;;;;1.21;76.62;100192.50;15763596;28;20057;-69
2021/12/08 03:06:37;;;;;;;1999.90;999.90;;;;;;;1.08;77.72;100187.66;15778011;28;20131;-67
2021/12/08 03:14:14;;;;;;;1999.90;999.90;;;;;;;1.12;77.69;100195.03;15779248;28;20071;-68
2021/12/08 03:21:47;;;;;;;1999.90;999.90;;;;;;;1.14;78.17;100181.00;15739845;28;20076;-70
2021/12/08 03:29:27;;;;;;;1999.90;999.90;;;;;;;1.12;77.61;100167.53;15773852;28;20082;-68
2021/12/08 03:37:00;;;;;;;1999.90;999.90;;;;;;;0.79;78.71;100171.03;15767785;28;20040;-68
2021/12/08 03:44:34;;;;;;;1999.90;999.90;;;;;;;0.92;78.09;100161.34;15808006;28;20067;-68
2021/12/08 03:52:07;;;;;;;1999.90;999.90;;;;;;;0.98;77.63;100171.22;15776276;28;20060;-68
2021/12/08 03:59:41;;;;;;;1999.90;999.90;;;;;;;1.12;77.23;100163.97;15795879;28;20507;-67
2021/12/08 04:07:15;;;;;;;1999.90;999.90;;;;;;;0.96;77.86;100141.28;15799907;28;20154;-68
2021/12/08 04:14:54;;;;;;;1999.90;999.90;;;;;;;0.93;78.26;100154.75;15787122;28;20045;-68
2021/12/08 04:22:29;;;;;;;1999.90;999.90;;;;;;;1.11;77.55;100149.41;15744713;28;20045;-69
2021/12/08 04:30:07;;;;;;;1999.90;999.90;;;;;;;1.05;77.64;100156.06;15786308;28;20105;-68
2021/12/08 04:37:44;;;;;;;1999.90;999.90;;;;;;;1.06;77.75;100154.16;15771650;28;20054;-69
2021/12/08 04:45:27;;;;;;;1999.90;999.90;;;;;;;1.12;76.79;100173.03;15762629;28;20467;-68
2021/12/08 04:53:06;;;;;;;1999.90;999.90;;;;;;;0.93;77.59;100155.56;15762714;28;20097;-68
2021/12/08 05:01:10;;;;;;;1999.90;999.90;;;;;;;1.27;76.89;100160.34;15804196;28;20127;-68
2021/12/08 05:08:43;;;;;;;1999.90;999.90;;;;;;;1.11;76.68;100140.34;15796008;28;20040;-68
2021/12/08 05:16:19;;;;;;;1999.90;999.90;;;;;;;1.31;76.80;100147.66;15787137;28;20056;-67
2021/12/08 05:23:57;;;;;;;1999.90;999.90;;;;;;;0.98;77.41;100144.56;15789869;28;20172;-70
2021/12/08 05:31:32;;;;;;;1999.90;999.90;;;;;;;1.13;76.69;100135.41;15765744;28;20512;-67
2021/12/08 05:39:10;;;;;;;1999.90;999.90;;;;;;;1.27;76.06;100141.09;15770916;28;20040;-67
2021/12/08 05:46:46;;;;;;;1999.90;999.90;;;;;;;1.24;75.70;100149.88;15775566;28;20413;-68
2021/12/08 05:54:23;;;;;;;1999.90;999.90;;;;;;;0.98;77.06;100169.28;15755104;28;20405;-68
2021/12/08 06:02:01;;;;;;;1999.90;999.90;;;;;;;1.23;76.04;100145.50;15781286;28;20619;-68
2021/12/08 06:09:35;;;;;;;1999.90;999.90;;;;;;;0.98;76.23;100144.56;15764185;28;20035;-68
2021/12/08 06:17:13;;;;;;;1999.90;999.90;;;;;;;1.14;75.45;100159.03;15742867;28;20048;-67
2021/12/08 06:24:46;;;;;;;1999.90;999.90;;;;;;;0.96;76.58;100152.28;15804086;28;20059;-67
2021/12/08 06:32:20;;;;;;;1999.90;999.90;;;;;;;0.91;77.13;100166.00;15798682;28;20044;-68
2021/12/08 06:39:57;;;;;;;1999.90;999.90;;;;;;;1.10;75.48;100167.00;15779903;28;20037;-67
2021/12/08 06:47:32;;;;;;;1999.90;999.90;;;;;;;0.94;76.09;100179.22;15785567;28;20040;-68
2021/12/08 06:55:10;;;;;;;1999.90;999.90;;;;;;;1.05;75.69;100160.75;15792499;28;20097;-67
2021/12/08 07:10:38;;;;;;;1999.90;999.90;;;;;;;0.93;75.75;100160.22;15752275;28;20420;-69
2021/12/08 07:18:17;;;;;;;1999.90;999.90;;;;;;;1.07;75.26;100150.28;15794805;28;20064;-68
2021/12/08 07:25:56;;;;;;;1999.90;999.90;;;;;;;1.14;75.29;100159.84;15774132;28;20048;-68
2021/12/08 07:33:31;;;;;;;1999.90;999.90;;;;;;;0.81;75.93;100158.66;15761329;28;20077;-68
2021/12/08 07:41:10;;;;;;;1999.90;999.90;;;;;;;0.96;75.82;100143.22;15782779;28;20052;-60
2021/12/08 07:48:48;;;;;;;1999.90;999.90;;;;;;;1.18;75.03;100142.81;15761941;28;20046;-54
2021/12/08 07:56:23;;;;;;;1999.90;999.90;;;;;;;1.03;75.61;100135.44;15806288;28;20078;-55
2021/12/08 08:03:58;;;;;;;1999.90;999.90;;;;;;;1.09;74.83;100117.84;15768113;28;20053;-62
2021/12/08 08:11:35;;;;;;;1999.90;999.90;;;;;;;1.14;74.84;100126.03;15784867;28;20587;-63
2021/12/08 08:19:15;;;;;;;1999.90;999.90;;;;;;;1.47;74.29;100132.69;15779995;28;20055;-65
2021/12/08 08:26:53;;;;;;;1999.90;999.90;;;;;;;1.13;74.77;100119.72;15743056;28;20123;-69
2021/12/08 08:34:28;;;;;;;1999.90;999.90;;;;;;;1.71;73.22;100130.03;15766170;28;20052;-65
2021/12/08 08:42:07;;;;;;;1999.90;999.90;;;;;;;1.62;73.16;100132.56;15754612;28;20048;-64
2021/12/08 08:49:43;;;;;;;1999.90;999.90;;;;;;;1.54;73.81;100116.69;15770682;28;20076;-65
2021/12/08 08:57:20;;;;;;;1999.90;999.90;;;;;;;1.68;72.88;100100.34;15745263;28;20071;-64
2021/12/08 09:04:58;;;;;;;1999.90;999.90;;;;;;;1.33;73.79;100082.22;15740431;28;20044;-64
2021/12/08 09:12:35;;;;;;;1999.90;999.90;;;;;;;1.73;73.25;100098.34;15736979;28;20051;-62
2021/12/08 09:20:21;;;;;;;1999.90;999.90;;;;;;;1.56;72.91;100088.88;15786188;28;20036;-63
2021/12/08 09:27:57;;;;;;;1999.90;999.90;;;;;;;1.84;72.48;100093.56;15786200;28;20119;-63
2021/12/08 09:35:35;;;;;;;1999.90;999.90;;;;;;;1.94;72.19;100104.47;15801917;28;20093;-63
2021/12/08 09:43:12;;;;;;;1999.90;999.90;;;;;;;2.02;72.29;100095.59;15802117;28;20059;-63
2021/12/08 09:50:46;;;;;;;1999.90;999.90;;;;;;;1.72;73.21;100088.47;15802043;28;20549;-63
2021/12/08 09:58:19;;;;;;;1999.90;999.90;;;;;;;2.11;72.16;100078.47;15800720;28;20048;-64
2021/12/08 10:05:55;;;;;;;1999.90;999.90;;;;;;;2.07;71.77;100088.38;15760618;28;20504;-63
2021/12/08 10:13:28;;;;;;;1999.90;999.90;;;;;;;2.14;71.91;100072.34;15738711;28;20044;-62
2021/12/08 10:21:03;;;;;;;1999.90;999.90;;;;;;;2.18;71.47;100040.38;15738542;28;20091;-65
2021/12/08 10:28:39;;;;;;;1999.90;999.90;;;;;;;2.35;71.40;100059.16;15737004;28;20101;-65
2021/12/08 10:36:33;;;;;;;1999.90;999.90;;;;;;;2.48;71.29;100055.69;15737924;28;20108;-65
2021/12/08 10:44:05;;;;;;;1999.90;999.90;;;;;;;2.42;70.43;100041.19;15745351;28;20050;-65
2021/12/08 11:00:00;;;;;;;1999.90;999.90;;;;;;;3.11;68.02;100036.84;15750279;28;20052;-65
2021/12/08 11:07:34;;;;;;;1999.90;999.90;;;;;;;2.87;68.93;100034.22;15803932;28;20048;-65
2021/12/08 11:15:20;;;;;;;1999.90;999.90;;;;;;;2.63;69.76;100027.97;15812864;28;20040;-65
2021/12/08 11:23:03;;;;;;;1999.90;999.90;;;;;;;2.81;69.49;100009.78;15812875;28;20128;-65
2021/12/08 11:30:35;;;;;;;1999.90;999.90;;;;;;;2.77;69.52;100011.50;15811292;28;20093;-65
2021/12/08 11:38:09;;;;;;;1999.90;999.90;;;;;;;2.45;70.24;100013.03;15826489;28;20052;-64
2021/12/08 11:45:43;;;;;;;1999.90;999.90;;;;;;;2.46;70.37;100006.41;15808704;28;20044;-63
2021/12/08 11:53:22;;;;;;;1999.90;999.90;;;;;;;2.70;69.83;100027.56;15806833;28;20528;-62
2021/12/08 12:00:55;;;;;;;1999.90;999.90;;;;;;;2.92;68.54;100041.59;15801688;28;20437;-64
2021/12/08 12:08:29;;;;;;;1999.90;999.90;;;;;;;2.61;69.36;100035.72;15752613;28;20045;-64
2021/12/08 12:16:02;;;;;;;1999.90;999.90;;;;;;;3.08;68.18;100047.69;15785824;28;20055;-65
2021/12/08 12:23:52;;;;;;;1999.90;999.90;;;;;;;3.17;68.48;100035.69;15786612;28;20119;-64
2021/12/08 12:31:29;;;;;;;1999.90;999.90;;;;;;;3.09;68.30;100007.97;15750685;28;20052;-64
2021/12/08 12:39:14;;;;;;;1999.90;999.90;;;;;;;2.94;68.41;99991.69;15748301;28;20051;-62
2021/12/08 12:47:20;;;;;;;1999.90;999.90;;;;;;;3.04;68.38;99981.31;15788377;28;20043;-62
2021/12/08 12:55:08;;;;;;;1999.90;999.90;;;;;;;2.95;68.77;99987.81;15756546;28;20036;-63
2021/12/08 13:02:49;;;;;;;1999.90;999.90;;;;;;;2.96;68.53;99995.78;15792038;28;20155;-64
2021/12/08 13:10:29;;;;;;;1999.90;999.90;;;;;;;2.87;68.31;99992.88;15801968;28;20068;-62
2021/12/08 13:18:04;;;;;;;1999.90;999.90;;;;;;;2.93;68.56;100012.09;15748659;28;20491;-63
2021/12/08 13:25:52;;;;;;;1999.90;999.90;;;;;;;3.09;68.55;100013.47;15755247;28;20403;-64
2021/12/08 13:33:32;;;;;;;1999.90;999.90;;;;;;;2.95;68.63;100031.91;15763203;28;20044;-64
2021/12/08 13:41:15;;;;;;;1999.90;999.90;;;;;;;3.06;68.38;100030.63;15793858;28;20341;-64
2021/12/08 13:49:11;;;;;;;1999.90;999.90;;;;;;;3.35;67.60;100030.44;15773828;28;20059;-66
2021/12/08 13:56:45;;;;;;;1999.90;999.90;;;;;;;3.01;67.97;100037.03;15749393;28;20042;-64
2021/12/08 14:04:18;;;;;;;1999.90;999.90;;;;;;;3.23;68.11;100030.91;15779260;28;20048;-65
2021/12/08 14:11:52;;;;;;;1999.90;999.90;;;;;;;3.11;68.24;100036.03;15754606;28;20032;-66
2021/12/08 14:19:26;;;;;;;1999.90;999.90;;;;;;;3.12;68.30;100012.88;15776651;28;20393;-63
2021/12/08 14:27:00;;;;;;;1999.90;999.90;;;;;;;3.08;68.14;100004.38;15739365;28;20079;-64
2021/12/08 14:34:39;;;;;;;1999.90;999.90;;;;;;;2.89;68.48;100011.84;15737379;28;20102;-63
2021/12/08 14:42:16;;;;;;;1999.90;999.90;;;;;;;3.10;68.34;100009.59;15738639;28;20419;-64
2021/12/08 14:49:50;;;;;;;1999.90;999.90;;;;;;;2.96;68.67;100011.50;15736887;28;20390;-64
2021/12/08 14:57:27;;;;;;;1999.90;999.90;;;;;;;3.03;68.34;100014.69;15750423;28;20043;-62
2021/12/08 15:05:08;;;;;;;1999.90;999.90;;;;;;;2.85;69.27;100011.66;15782617;28;20048;-62
2021/12/08 15:12:45;;;;;;;1999.90;999.90;;;;;;;2.94;69.09;100024.75;15795143;28;20040;-64
2021/12/08 15:20:19;;;;;;;1999.90;999.90;;;;;;;3.02;69.05;100024.91;15771877;28;20044;-63
2021/12/08 15:27:59;;;;;;;1999.90;999.90;;;;;;;2.65;70.48;100033.16;15764313;28;20044;-64
2021/12/08 15:35:32;;;;;;;1999.90;999.90;;;;;;;2.66;71.06;100043.06;15800265;28;20048;-63
2021/12/08 15:43:12;;;;;;;1999.90;999.90;;;;;;;2.55;70.99;100043.22;15768542;28;20079;-63
2021/12/08 15:50:47;;;;;;;1999.90;999.90;;;;;;;2.80;70.43;100032.94;15747889;28;20519;-65
2021/12/08 15:58:22;;;;;;;1999.90;999.90;;;;;;;2.72;70.72;100036.38;15769264;28;20132;-63
2021/12/08 16:05:55;;;;;;;1999.90;999.90;;;;;;;2.67;70.43;100039.19;15760382;28;20048;-64
2021/12/08 16:13:32;;;;;;;1999.90;999.90;;;;;;;2.51;71.08;100036.66;15766616;28;20040;-63
2021/12/08 16:21:05;;;;;;;1999.90;999.90;;;;;;;2.54;70.59;100036.06;15771687;28;20199;-64
2021/12/08 16:28:40;;;;;;;1999.90;999.90;;;;;;;2.46;70.01;100028.44;15784271;28;20055;-64
2021/12/08 16:36:12;;;;;;;1999.90;999.90;;;;;;;2.15;71.42;100021.69;15765779;28;20143;-61
2021/12/08 16:43:47;;;;;;;1999.90;999.90;;;;;;;2.17;71.33;100001.03;15799425;28;20063;-63
2021/12/08 16:51:20;;;;;;;1999.90;999.90;;;;;;;2.22;71.41;99981.69;15800489;28;20072;-64
2021/12/08 16:58:54;;;;;;;1999.90;999.90;;;;;;;2.02;71.79;99990.22;15789279;28;20041;-63
2021/12/08 17:06:26;;;;;;;1999.90;999.90;;;;;;;2.16;71.50;100004.06;15804267;28;20055;-63
2021/12/08 17:14:01;;;;;;;1999.90;999.90;;;;;;;1.91;72.26;100013.47;15803850;28;20558;-63
2021/12/08 17:21:33;;;;;;;1999.90;999.90;;;;;;;2.22;71.08;100033.19;15802497;28;20048;-62
2021/12/08 17:29:14;;;;;;;1999.90;999.90;;;;;;;2.09;71.50;100053.97;15804026;28;20409;-62
2021/12/08 17:36:47;;;;;;;1999.90;999.90;;;;;;;1.96;71.59;100060.16;15747643;28;20049;-63
2021/12/08 17:44:22;;;;;;;1999.90;999.90;;;;;;;1.87;71.43;100048.97;15766743;28;20504;-62
2021/12/08 17:51:55;;;;;;;1999.90;999.90;;;;;;;1.99;71.47;100029.34;15726919;28;20295;-63
2021/12/08 17:59:28;;;;;;;1999.90;999.90;;;;;;;1.76;71.23;100025.44;15739787;28;20040;-62
2021/12/08 18:07:01;;;;;;;1999.90;999.90;;;;;;;1.79;71.60;100048.81;15784790;28;20048;-62
2021/12/08 18:14:37;;;;;;;1999.90;999.90;;;;;;;1.95;71.49;100053.84;15805726;28;20127;-63
2021/12/08 18:22:10;;;;;;;1999.90;999.90;;;;;;;1.68;71.77;100048.91;15771725;28;20105;-63
2021/12/08 18:29:43;;;;;;;1999.90;999.90;;;;;;;1.88;71.44;100028.63;15811687;28;20040;-63
2021/12/08 18:37:16;;;;;;;1999.90;999.90;;;;;;;1.93;70.79;100047.81;15790997;28;20076;-65
2021/12/08 18:44:52;;;;;;;1999.90;999.90;;;;;;;1.90;71.36;100066.84;15769003;28;20062;-63
2021/12/08 18:52:25;;;;;;;1999.90;999.90;;;;;;;1.97;71.04;100072.81;15757358;28;20045;-60
2021/12/08 18:59:59;;;;;;;1999.90;999.90;;;;;;;1.98;71.00;100066.19;15754945;28;20560;-62
2021/12/08 19:07:32;;;;;;;1999.90;999.90;;;;;;;2.27;70.59;100088.97;15772158;28;20442;-65
2021/12/08 19:15:08;;;;;;;1999.90;999.90;;;;;;;1.62;71.94;100085.81;15786865;28;20059;-65
2021/12/08 19:22:41;;;;;;;1999.90;999.90;;;;;;;2.12;70.50;100102.13;15796181;28;20077;-63
2021/12/08 19:30:16;;;;;;;1999.90;999.90;;;;;;;2.13;70.83;100112.81;15773752;28;20048;-64
2021/12/08 19:37:49;;;;;;;1999.90;999.90;;;;;;;2.08;70.96;100115.63;15771466;28;20425;-64
2021/12/08 19:45:24;;;;;;;1999.90;999.90;;;;;;;1.96;71.14;100109.69;15774373;28;20075;-64
2021/12/08 19:52:58;;;;;;;1999.90;999.90;;;;;;;2.16;70.68;100106.72;15791605;28;20123;-63
2021/12/08 20:00:32;;;;;;;;;;;;;;;1.78;71.61;100097.50;15747897;28;20040;-65
2021/12/08 20:08:07;;;;;;;1999.90;999.90;;;;;;;1.88;71.44;100091.09;15842479;22;19928;-64
2021/12/08 20:15:44;;;;;;;1999.90;999.90;;;;;;;1.79;72.47;100077.13;15668704;28;20084;-64
2021/12/08 20:23:20;;;;;;;1999.90;999.90;;;;;;;1.80;72.16;100092.53;15662486;28;20045;-63
2021/12/08 20:30:54;;;;;;;1999.90;999.90;;;;;;;1.70;72.16;100103.63;15639842;28;20069;-63
2021/12/08 20:38:26;;;;;;;1999.90;999.90;;;;;;;1.95;71.23;100132.81;15663537;28;20501;-62
2021/12/08 20:46:01;;;;;;;1999.90;999.90;;;;;;;1.91;71.22;100116.06;15630351;28;20086;-64
2021/12/08 20:53:36;;;;;;;1999.90;999.90;;;;;;;1.77;71.67;100081.28;15624566;28;20116;-65
2021/12/08 21:01:23;;;;;;;1999.90;999.90;;;;;;;1.86;71.81;100082.28;15615143;28;20096;-63
2021/12/08 21:08:56;;;;;;;1999.90;999.90;;;;;;;1.69;71.69;100100.06;15564829;28;20575;-63
2021/12/08 21:16:32;;;;;;;1999.90;999.90;;;;;;;1.94;71.66;100100.91;15591126;28;20053;-64
2021/12/08 21:24:05;;;;;;;1999.90;999.90;;;;;;;1.79;71.88;100107.41;15597959;28;20053;-63
2021/12/08 21:31:39;;;;;;;1999.90;999.90;;;;;;;1.78;72.15;100096.69;15594992;28;20047;-63
2021/12/08 21:39:14;;;;;;;1999.90;999.90;;;;;;;1.54;72.31;100082.84;15606326;28;20050;-63
2021/12/08 21:46:47;;;;;;;1999.90;999.90;;;;;;;1.81;71.44;100094.16;15594865;28;20129;-62
2021/12/08 21:54:20;;;;;;;1999.90;999.90;;;;;;;1.59;71.83;100086.41;15578611;28;20168;-59
2021/12/08 22:01:54;;;;;;;1999.90;999.90;;;;;;;1.60;72.40;100084.47;15629073;28;20413;-61
2021/12/08 22:09:27;;;;;;;1999.90;999.90;;;;;;;1.50;72.49;100093.63;15629306;28;20470;-61
2021/12/08 22:17:00;;;;;;;1999.90;999.90;;;;;;;1.57;72.46;100099.63;15591180;28;20503;-65
2021/12/08 22:24:33;;;;;;;1999.90;999.90;;;;;;;1.58;72.40;100098.50;15573236;28;20136;-64
2021/12/08 22:32:10;;;;;;;1999.90;999.90;;;;;;;1.43;72.73;100101.38;15624578;28;20053;-66
2021/12/08 22:39:44;;;;;;;1999.90;999.90;;;;;;;1.56;72.35;100119.13;15639648;28;20430;-66
2021/12/08 22:47:18;;;;;;;1999.90;999.90;;;;;;;1.38;72.77;100110.50;15586560;28;20052;-66
2021/12/08 22:54:56;;;;;;;1999.90;999.90;;;;;;;1.58;71.97;100117.75;15604226;28;20038;-64
2021/12/08 23:02:32;;;;;;;1999.90;999.90;;;;;;;1.27;73.25;100110.88;15595506;28;20056;-66
2021/12/08 23:10:06;;;;;;;1999.90;999.90;;;;;;;1.46;72.48;100120.06;15649608;28;20045;-64
2021/12/08 23:17:41;;;;;;;1999.90;999.90;;;;;;;1.30;73.21;100130.34;15644021;28;20049;-66
2021/12/08 23:25:14;;;;;;;1999.90;999.90;;;;;;;1.24;73.00;100114.16;15601194;28;20180;-66
2021/12/08 23:32:48;;;;;;;1999.90;999.90;;;;;;;1.43;72.98;100117.88;15592326;28;20045;-65
2021/12/08 23:40:25;;;;;;;1999.90;999.90;;;;;;;1.30;72.64;100113.03;15609305;28;20050;-66
2021/12/08 23:48:02;;;;;;;1999.90;999.90;;;;;;;1.33;72.42;100117.94;15628681;28;20089;-66
2021/12/08 23:55:36;;;;;;;1999.90;999.90;;;;;;;1.28;72.70;100112.50;15592686;28;20565;-64
